Cash, South Dakota
Current Conditions -  °F | °C
As of 5:53 AM on Friday 24 Oct 2014 (Local Time) from KHEI Reporting Station
Clear Clear  
Wind Chill: 41°   Ceiling: Unl
Heat Index: 41°   Visibility: 10mi
Dew Point: 28°   Wind: 3mph
Humidity: 60%   Direction: 310°NW
Pressure: 29.89"   Gusts: NA
Location:  45.5161°N, 102.519°W
Report Text: KHEI 241153Z AUTO 31003KT 10SM CLR 05/M02 A2989 RMK AO2 SLP130 T00501022 10083 20033 53005
Loading
Personal Weather Stations






























Interactive Weather Map
Tropical Storm Tracking
New forecast layout! Learn more

10-Day Weather Forecast

Advertisements
Track Severe Weather on mobile